Thor Omega — OZ2065 — position and weather

sailwx.info

Track history (hours):
 
Tides and Currents Weather Stations Pressure Air Temp Water Temp Dewpoint Dewpoint Depression Visibility Wind Speed Wind Dir Waves Ship Positions

Thor Omega

Last reported at 2017-Aug-20 04:03 UTC. Time now 2017-Sep-24 17:50 UTC.
Position N 27°28' W 016°15'.
Warning: this ship's position is 35 days out of date.

Length 55 m; draft 5 m.

Type: Other ship. MMSI: 231085000.

Date/timePositionNaut miles runAvg speedWind from/ knotsBaromVisibWave heightAir tempDewpointWater temp
2017-Aug-20 04:03N 27°28' W 016°15'2 6.3
2017-Aug-20 03:45N 27°29' W 016°13'4 6.4
2017-Aug-20 03:05N 27°31' W 016°09'1 6.3
2017-Aug-20 02:58N 27°31' W 016°08'3 6.2
2017-Aug-20 02:30N 27°32' W 016°05'4 6.0
2017-Aug-20 01:49N 27°34' W 016°01'3 6.0
2017-Aug-20 01:21N 27°35' W 015°58'2 5.8
2017-Aug-20 00:59N 27°36' W 015°56'3 5.7
2017-Aug-20 00:29N 27°37' W 015°53'3 6.0
2017-Aug-20 00:00N 27°38' W 015°50'3 6.1
2017-Aug-19 23:28N 27°39' W 015°46'26 8.4
2017-Aug-19 20:20N 27°52' W 015°21'3 9.7
2017-Aug-19 20:00N 27°55' W 015°20'5 9.2
2017-Aug-19 19:30N 27°60' W 015°20'4 8.6
2017-Aug-19 19:00N 28°04' W 015°21'4 8.6
2017-Aug-19 18:30N 28°08' W 015°24'2 3.6
2017-Aug-19 17:58N 28°10' W 015°24'0 0.0
2017-Aug-19 17:28N 28°10' W 015°24'0 0.0
2017-Aug-19 16:58N 28°10' W 015°24'0 0.0
2017-Aug-19 16:28N 28°10' W 015°24'0 0.0
2017-Aug-19 15:58N 28°10' W 015°24'0 0.0
2017-Aug-19 15:28N 28°10' W 015°24'0 0.0
2017-Aug-19 14:49N 28°10' W 015°24'0 0.0
2017-Aug-19 13:49N 28°10' W 015°24'0 0.0
2017-Aug-19 13:22N 28°10' W 015°24'0 0.0
2017-Aug-19 12:52N 28°10' W 015°24'0 0.0
2017-Aug-19 12:22N 28°10' W 015°24'0 0.0
2017-Aug-19 11:52N 28°10' W 015°24'0 0.0
2017-Aug-19 11:22N 28°10' W 015°24'0 0.0
2017-Aug-19 10:52N 28°10' W 015°24'0 0.0
2017-Aug-19 10:25N 28°10' W 015°24'0 0.0
2017-Aug-19 09:55N 28°10' W 015°24'0 0.0
2017-Aug-19 09:25N 28°10' W 015°24'0 0.0
2017-Aug-19 08:55N 28°10' W 015°24'0 0.0
2017-Aug-19 08:25N 28°10' W 015°24'0 0.0
2017-Aug-19 07:55N 28°10' W 015°24'0 1.1
2017-Aug-19 07:30N 28°09' W 015°24'0 0.8
2017-Aug-19 06:59N 28°09' W 015°24'0 0.0
2017-Aug-19 06:29N 28°09' W 015°24'0 0.0
2017-Aug-19 05:59N 28°09' W 015°24'0 0.0
2017-Aug-19 05:29N 28°09' W 015°24'0 0.0
2017-Aug-19 04:59N 28°09' W 015°24'0 0.0
2017-Aug-19 04:20N 28°09' W 015°24'0 0.0
2017-Aug-19 03:50N 28°09' W 015°24'0 0.0
2017-Aug-19 03:20N 28°09' W 015°24'0 0.0
2017-Aug-19 02:53N 28°09' W 015°24'0 0.0
2017-Aug-19 02:23N 28°09' W 015°24'0 0.0
2017-Aug-19 01:53N 28°09' W 015°24'0 0.0
2017-Aug-19 01:23N 28°09' W 015°24'0 0.0
2017-Aug-19 00:53N 28°09' W 015°24'0 0.0
2017-Aug-19 00:23N 28°09' W 015°24'0 0.0
2017-Aug-18 23:56N 28°09' W 015°24'0 0.0
2017-Aug-18 23:26N 28°09' W 015°24'0 0.0
2017-Aug-18 22:56N 28°09' W 015°24'0 0.0
2017-Aug-18 22:11N 28°09' W 015°24'0 0.0
2017-Aug-18 21:56N 28°09' W 015°24'0 0.0
2017-Aug-18 21:26N 28°09' W 015°24'0 0.0
2017-Aug-18 20:59N 28°09' W 015°24'0 0.0
2017-Aug-18 20:29N 28°09' W 015°24'0 0.0
2017-Aug-18 19:59N 28°09' W 015°24'0 0.7
2017-Aug-18 19:28N 28°09' W 015°25'0 0.7
2017-Aug-18 18:56N 28°09' W 015°24'0 0.0
2017-Aug-18 18:26N 28°09' W 015°24'0 0.0
2017-Aug-18 17:56N 28°09' W 015°24'0 0.0
2017-Aug-18 17:23N 28°09' W 015°24'0 0.0
2017-Aug-18 16:59N 28°09' W 015°24'0 0.0
2017-Aug-18 16:29N 28°09' W 015°24'0 0.0
2017-Aug-18 15:59N 28°09' W 015°24'0 0.0
2017-Aug-18 15:29N 28°09' W 015°24'0 0.0
2017-Aug-18 14:59N 28°09' W 015°24'0 0.0
2017-Aug-18 14:29N 28°09' W 015°24'0 0.0
2017-Aug-18 13:29N 28°09' W 015°24'0 0.0
2017-Aug-18 12:59N 28°09' W 015°24'0 0.0
2017-Aug-18 12:29N 28°09' W 015°24'0 0.0
2017-Aug-18 11:59N 28°09' W 015°24'0 0.0
2017-Aug-18 11:29N 28°09' W 015°24'0 0.0
2017-Aug-18 10:59N 28°09' W 015°24'0 0.0
2017-Aug-18 10:29N 28°09' W 015°24'0 0.0
2017-Aug-18 09:50N 28°09' W 015°24'0 0.0
2017-Aug-18 09:20N 28°09' W 015°24'0 0.0
2017-Aug-18 08:50N 28°09' W 015°24'0 0.0
2017-Aug-18 08:23N 28°09' W 015°24'0 0.0
2017-Aug-18 07:53N 28°09' W 015°24'0 0.0
2017-Aug-18 07:23N 28°09' W 015°24'0 0.0
2017-Aug-18 06:53N 28°09' W 015°24'0 0.0
2017-Aug-18 06:20N 28°09' W 015°24'0 0.0
2017-Aug-18 05:53N 28°09' W 015°24'0 0.0
2017-Aug-18 05:26N 28°09' W 015°24'0 0.0
2017-Aug-18 04:56N 28°09' W 015°24'0 0.0
2017-Aug-18 04:26N 28°09' W 015°24'0 0.0
2017-Aug-18 03:56N 28°09' W 015°24'0 0.0
2017-Aug-18 03:26N 28°09' W 015°24'0 0.0
2017-Aug-18 02:53N 28°09' W 015°24'0 0.0
2017-Aug-18 02:29N 28°09' W 015°24'0 0.0
2017-Aug-18 01:56N 28°09' W 015°24'0 0.0
2017-Aug-18 01:29N 28°09' W 015°24'0 0.0
2017-Aug-18 00:59N 28°09' W 015°24'0 0.0
2017-Aug-18 00:26N 28°09' W 015°24'0 0.0
2017-Aug-17 23:59N 28°09' W 015°24'0 0.0
2017-Aug-17 23:29N 28°09' W 015°24'0 0.0
2017-Aug-17 22:59N 28°09' W 015°24'0 0.0
2017-Aug-17 22:29N 28°09' W 015°24'0 0.0
2017-Aug-17 21:59N 28°09' W 015°24'0 0.0
2017-Aug-17 21:29N 28°09' W 015°24'0 0.0
2017-Aug-17 20:59N 28°09' W 015°24'0 0.0
2017-Aug-17 20:29N 28°09' W 015°24'0 0.0
2017-Aug-17 19:59N 28°09' W 015°24'0 0.0
2017-Aug-17 19:20N 28°09' W 015°24'0 0.0
2017-Aug-17 18:50N 28°09' W 015°24'0 0.0
2017-Aug-17 18:23N 28°09' W 015°24'0 0.0
2017-Aug-17 17:53N 28°09' W 015°24'0 0.0
2017-Aug-17 17:23N 28°09' W 015°24'0 0.0
2017-Aug-17 16:53N 28°09' W 015°24'0 0.0
2017-Aug-17 16:23N 28°09' W 015°24'0 0.0
2017-Aug-17 15:53N 28°09' W 015°24'0 0.0
2017-Aug-17 15:26N 28°09' W 015°24'0 0.0
2017-Aug-17 14:56N 28°09' W 015°24'0 0.0
2017-Aug-17 14:26N 28°09' W 015°24'0 0.0
2017-Aug-17 13:56N 28°09' W 015°24'0 0.0
2017-Aug-17 13:26N 28°09' W 015°24'0 0.0
2017-Aug-17 12:56N 28°09' W 015°24'0 0.0
2017-Aug-17 12:29N 28°09' W 015°24'0 0.0
2017-Aug-17 11:59N 28°09' W 015°24'0 0.0
2017-Aug-17 11:29N 28°09' W 015°24'0 0.0
2017-Aug-17 10:59N 28°09' W 015°24'0 0.0
2017-Aug-17 10:29N 28°09' W 015°24'0 0.0
2017-Aug-17 09:59N 28°09' W 015°24'0 0.0
2017-Aug-17 09:29N 28°09' W 015°24'0 0.0
2017-Aug-17 08:59N 28°09' W 015°24'0 0.0
2017-Aug-17 08:29N 28°09' W 015°24'0 0.0
2017-Aug-17 07:59N 28°09' W 015°24'0 0.0
2017-Aug-17 07:17N 28°09' W 015°24'0 0.0
2017-Aug-17 06:59N 28°09' W 015°24'0 0.0
2017-Aug-17 06:29N 28°09' W 015°24'0 0.0
2017-Aug-17 05:50N 28°09' W 015°24'0 0.0
2017-Aug-17 05:29N 28°09' W 015°24'0 0.0
2017-Aug-17 04:50N 28°09' W 015°24'0 0.0
2017-Aug-17 04:20N 28°09' W 015°24'0 0.0
2017-Aug-17 03:53N 28°09' W 015°24'0 0.0
2017-Aug-17 03:23N 28°09' W 015°24'0 0.0
2017-Aug-17 02:53N 28°09' W 015°24'0 0.0
2017-Aug-17 02:23N 28°09' W 015°24'0 0.0
2017-Aug-17 01:53N 28°09' W 015°24'0 0.0
2017-Aug-17 01:23N 28°09' W 015°24'0 0.0
2017-Aug-17 00:56N 28°09' W 015°24'0 0.0
2017-Aug-17 00:26N 28°09' W 015°24'0 0.0
2017-Aug-16 23:56N 28°09' W 015°24'0 0.0
2017-Aug-16 23:26N 28°09' W 015°24'0 0.0
2017-Aug-16 22:53N 28°09' W 015°24'0 0.0
2017-Aug-16 22:26N 28°09' W 015°24'0 0.0
2017-Aug-16 21:59N 28°09' W 015°24'0 0.0
2017-Aug-16 21:29N 28°09' W 015°24'0 0.0
2017-Aug-16 20:59N 28°09' W 015°24'0 0.0
2017-Aug-16 20:29N 28°09' W 015°24'0 0.0
2017-Aug-16 19:59N 28°09' W 015°24'0 0.0
2017-Aug-16 19:29N 28°09' W 015°24'0 0.0
2017-Aug-16 18:59N 28°09' W 015°24'0 0.0
2017-Aug-16 18:29N 28°09' W 015°24'0 0.0
2017-Aug-16 17:47N 28°09' W 015°24'0 0.0
2017-Aug-16 17:29N 28°09' W 015°24'0 0.0
2017-Aug-16 16:59N 28°09' W 015°24'0 0.0
2017-Aug-16 16:29N 28°09' W 015°24'0 0.0
2017-Aug-16 15:59N 28°09' W 015°24'0 0.0
2017-Aug-16 15:29N 28°09' W 015°24'0 0.0
2017-Aug-16 14:50N 28°09' W 015°24'0 0.0
2017-Aug-16 14:20N 28°09' W 015°24'0 0.0
2017-Aug-16 13:50N 28°09' W 015°24'0 0.0
2017-Aug-16 13:23N 28°09' W 015°24'0 0.0
2017-Aug-16 12:53N 28°09' W 015°24'0 0.0
2017-Aug-16 12:23N 28°09' W 015°24'0 0.0
2017-Aug-16 11:53N 28°09' W 015°24'0 0.0
2017-Aug-16 11:23N 28°09' W 015°24'0 0.0
2017-Aug-16 10:53N 28°09' W 015°24'0 0.0
2017-Aug-16 10:26N 28°09' W 015°24'0 0.0
2017-Aug-16 09:56N 28°09' W 015°24'0 0.0
2017-Aug-16 09:26N 28°09' W 015°24'0 0.0
2017-Aug-16 08:56N 28°09' W 015°24'0 0.0
2017-Aug-16 08:26N 28°09' W 015°24'0 0.0
2017-Aug-16 07:59N 28°09' W 015°24'0 0.0
2017-Aug-16 07:29N 28°09' W 015°24'0 0.0
2017-Aug-16 06:59N 28°09' W 015°24'0 0.0
2017-Aug-16 06:26N 28°09' W 015°24'0 0.0
2017-Aug-16 05:59N 28°09' W 015°24'0 0.0
2017-Aug-16 05:29N 28°09' W 015°24'0 0.0
2017-Aug-16 04:59N 28°09' W 015°24'0 0.0
2017-Aug-16 04:29N 28°09' W 015°24'0 0.0
2017-Aug-16 03:59N 28°09' W 015°24'0 0.0
2017-Aug-16 03:29N 28°09' W 015°24'0 0.0
2017-Aug-16 02:59N 28°09' W 015°24'0 0.0
2017-Aug-16 02:29N 28°09' W 015°24'0 0.0
2017-Aug-16 01:59N 28°09' W 015°24'0 0.0
2017-Aug-16 01:29N 28°09' W 015°24'0 0.0
2017-Aug-16 00:50N 28°09' W 015°24'0 0.0
2017-Aug-16 00:20N 28°09' W 015°24'0 0.0
2017-Aug-15 23:50N 28°09' W 015°24'0 0.0
2017-Aug-15 23:23N 28°09' W 015°24'0 0.0
2017-Aug-15 22:53N 28°09' W 015°24'0 0.0
2017-Aug-15 22:23N 28°09' W 015°24'0 0.0
2017-Aug-15 21:53N 28°09' W 015°24'0 0.0
2017-Aug-15 21:23N 28°09' W 015°24'0 0.0
2017-Aug-15 20:53N 28°09' W 015°24'0 0.0
2017-Aug-15 20:26N 28°09' W 015°24'0 0.0
2017-Aug-15 19:56N 28°09' W 015°24'0 0.0
2017-Aug-15 19:23N 28°09' W 015°24'0 0.0
2017-Aug-15 18:56N 28°09' W 015°24'0 0.0
2017-Aug-15 18:26N 28°09' W 015°24'0 0.0
2017-Aug-15 17:56N 28°09' W 015°24'0 0.0
2017-Aug-15 17:29N 28°09' W 015°24'0 0.0
2017-Aug-15 16:59N 28°09' W 015°24'0 0.0
2017-Aug-15 16:29N 28°09' W 015°24'0 0.0
2017-Aug-15 15:59N 28°09' W 015°24'0 0.0
2017-Aug-15 15:29N 28°09' W 015°24'0 0.0
2017-Aug-15 14:59N 28°09' W 015°24'0 0.0
2017-Aug-15 14:17N 28°09' W 015°24'0 0.0
2017-Aug-15 13:59N 28°09' W 015°24'0 0.0
2017-Aug-15 13:29N 28°09' W 015°24'0 0.0
2017-Aug-15 12:59N 28°09' W 015°24'0 0.0
2017-Aug-15 12:29N 28°09' W 015°24'0 0.0
2017-Aug-15 11:59N 28°09' W 015°24'0 0.0
2017-Aug-15 11:20N 28°09' W 015°24'0 0.0
2017-Aug-15 10:59N 28°09' W 015°24'0 0.0
2017-Aug-15 10:20N 28°09' W 015°24'0 0.0
2017-Aug-15 09:50N 28°09' W 015°24'0 0.0
2017-Aug-15 09:20N 28°09' W 015°24'0 0.0
2017-Aug-15 08:53N 28°09' W 015°24'0 0.3
2017-Aug-15 08:23N 28°09' W 015°24'0 0.1
2017-Aug-15 07:53N 28°09' W 015°24'0 0.2
2017-Aug-15 07:23N 28°09' W 015°24'0 0.1
2017-Aug-15 06:53N 28°10' W 015°24'0 0.0
2017-Aug-15 06:23N 28°10' W 015°24'0 0.0
2017-Aug-15 05:56N 28°10' W 015°24'0 0.0
2017-Aug-15 05:26N 28°10' W 015°24'0 0.0
2017-Aug-15 04:56N 28°10' W 015°24'0 0.0
2017-Aug-15 04:26N 28°10' W 015°24'0 0.0
2017-Aug-15 03:56N 28°10' W 015°24'0 0.0
2017-Aug-15 03:29N 28°10' W 015°24'0 0.0
2017-Aug-15 02:59N 28°10' W 015°24'0 0.0
2017-Aug-15 02:29N 28°10' W 015°24'0 0.0
2017-Aug-15 01:59N 28°10' W 015°24'0 0.0
2017-Aug-15 01:29N 28°10' W 015°24'0 0.0
2017-Aug-15 00:59N 28°10' W 015°24'0 0.0
2017-Aug-15 00:29N 28°10' W 015°24'0 0.0
2017-Aug-14 23:59N 28°10' W 015°24'0 0.0
2017-Aug-14 23:29N 28°10' W 015°24'0 0.0
2017-Aug-14 22:59N 28°10' W 015°24'0 0.0
2017-Aug-14 22:29N 28°10' W 015°24'0 0.0
2017-Aug-14 21:59N 28°10' W 015°24'0 0.0
2017-Aug-14 21:20N 28°10' W 015°24'0 0.0
2017-Aug-14 20:59N 28°10' W 015°24'0 0.0
2017-Aug-14 20:29N 28°10' W 015°24'0 0.0
2017-Aug-14 19:50N 28°10' W 015°24'0 0.0
2017-Aug-14 19:20N 28°10' W 015°24'0 0.0
2017-Aug-14 18:50N 28°10' W 015°24'0 0.0
2017-Aug-14 18:23N 28°10' W 015°24'0 0.0
2017-Aug-14 17:50N 28°10' W 015°24'0 0.0
2017-Aug-14 17:23N 28°10' W 015°24'0 0.0
2017-Aug-14 16:53N 28°10' W 015°24'0 0.0
2017-Aug-14 16:23N 28°10' W 015°24'0 0.0
2017-Aug-14 15:56N 28°10' W 015°24'0 0.0
2017-Aug-14 15:26N 28°10' W 015°24'0 0.0
2017-Aug-14 14:56N 28°10' W 015°24'0 0.0
2017-Aug-14 14:26N 28°10' W 015°24'0 0.0
2017-Aug-14 13:56N 28°10' W 015°24'0 0.0
2017-Aug-14 13:26N 28°10' W 015°24'0 0.0
2017-Aug-14 12:59N 28°10' W 015°24'0 0.0
2017-Aug-14 12:29N 28°10' W 015°24'0 0.0
2017-Aug-14 11:59N 28°10' W 015°24'0 0.0
2017-Aug-14 11:26N 28°10' W 015°24'0 0.0
2017-Aug-14 10:59N 28°10' W 015°24'0 0.0
2017-Aug-14 10:29N 28°10' W 015°24'0 0.0
2017-Aug-14 09:59N 28°10' W 015°24'0 0.0
2017-Aug-14 09:29N 28°10' W 015°24'0 0.0
2017-Aug-14 08:59N 28°10' W 015°24'0 0.0
2017-Aug-14 08:29N 28°10' W 015°24'0 0.0
2017-Aug-14 07:59N 28°10' W 015°24'0 0.0
2017-Aug-14 07:29N 28°10' W 015°24'0 0.0
2017-Aug-14 06:59N 28°10' W 015°24'0 0.0
2017-Aug-14 06:29N 28°10' W 015°24'0 0.0
2017-Aug-14 05:50N 28°10' W 015°24'0 0.0
2017-Aug-14 05:17N 28°10' W 015°24'0 0.0
2017-Aug-14 04:50N 28°10' W 015°24'0 0.0
2017-Aug-14 04:20N 28°10' W 015°24'0 0.0
2017-Aug-14 03:53N 28°10' W 015°24'0 0.0
2017-Aug-14 03:23N 28°10' W 015°24'0 0.0
2017-Aug-14 02:53N 28°10' W 015°24'0 0.0
2017-Aug-14 02:23N 28°10' W 015°24'0 0.0
2017-Aug-14 01:53N 28°10' W 015°24'0 0.0
2017-Aug-14 01:26N 28°10' W 015°24'0 0.0
2017-Aug-14 00:56N 28°10' W 015°24'0 0.0
2017-Aug-14 00:26N 28°10' W 015°24'0 0.0
2017-Aug-13 23:56N 28°10' W 015°24'0 0.0
2017-Aug-13 23:26N 28°10' W 015°24'0 0.0
2017-Aug-13 22:56N 28°10' W 015°24'0 0.0
2017-Aug-13 22:29N 28°10' W 015°24'0 0.0
2017-Aug-13 21:59N 28°10' W 015°24'0 0.0
2017-Aug-13 21:29N 28°10' W 015°24'0 0.0
2017-Aug-13 20:59N 28°10' W 015°24'0 0.0
2017-Aug-13 20:29N 28°10' W 015°24'0 0.0
2017-Aug-13 19:47N 28°10' W 015°24'0 0.0
2017-Aug-13 19:29N 28°10' W 015°24'0 0.0
2017-Aug-13 18:59N 28°10' W 015°24'0 0.0
2017-Aug-13 18:29N 28°10' W 015°24'0 0.0
2017-Aug-13 17:59N 28°10' W 015°24'0 0.0
2017-Aug-13 17:29N 28°10' W 015°24'0 0.0
2017-Aug-13 16:59N 28°10' W 015°24'0 0.0
2017-Aug-13 16:29N 28°10' W 015°24'0 0.0
2017-Aug-13 15:59N 28°10' W 015°24'0 0.0
2017-Aug-13 15:20N 28°10' W 015°24'0 0.0
2017-Aug-13 14:50N 28°10' W 015°24'0 0.0
2017-Aug-13 14:20N 28°10' W 015°24'0 0.0
2017-Aug-13 13:59N 28°10' W 015°24'0 0.0
2017-Aug-13 13:23N 28°10' W 015°24'0 0.0
2017-Aug-13 12:53N 28°10' W 015°24'0 0.0
2017-Aug-13 12:23N 28°10' W 015°24'0 0.0
2017-Aug-13 11:53N 28°10' W 015°24'0 0.0
2017-Aug-13 11:26N 28°10' W 015°24'0 0.0
2017-Aug-13 10:56N 28°10' W 015°24'0 0.0
2017-Aug-13 10:26N 28°10' W 015°24'0 0.0
2017-Aug-13 09:56N 28°10' W 015°24'0 0.0
2017-Aug-13 09:26N 28°10' W 015°24'0 0.0
2017-Aug-13 08:56N 28°10' W 015°24'0 0.0
2017-Aug-13 08:29N 28°10' W 015°24'0 0.0
2017-Aug-13 07:59N 28°10' W 015°24'0 0.0
2017-Aug-13 07:29N 28°10' W 015°24'0 0.0
2017-Aug-13 06:59N 28°10' W 015°24'0 0.0
2017-Aug-13 06:29N 28°10' W 015°24'0 0.0
2017-Aug-13 05:59N 28°10' W 015°24'0 0.0
2017-Aug-13 05:29N 28°10' W 015°24'0 0.0
2017-Aug-13 04:59N 28°10' W 015°24'0 0.0
2017-Aug-13 04:29N 28°10' W 015°24'0 0.0
2017-Aug-13 03:59N 28°10' W 015°24'0 0.0
2017-Aug-13 03:17N 28°10' W 015°24'0 0.0
2017-Aug-13 02:59N 28°10' W 015°24'0 0.0
2017-Aug-13 02:29N 28°10' W 015°24'0 0.0
2017-Aug-13 01:59N 28°10' W 015°24'0 0.0
2017-Aug-13 01:29N 28°10' W 015°24'0 0.0
2017-Aug-13 00:50N 28°10' W 015°24'0 0.0
2017-Aug-13 00:20N 28°10' W 015°24'0 0.0
2017-Aug-12 23:53N 28°10' W 015°24'0 0.0
2017-Aug-12 23:23N 28°10' W 015°24'0 0.0
2017-Aug-12 22:53N 28°10' W 015°24'0 0.0
2017-Aug-12 22:20N 28°10' W 015°24'0 0.0
2017-Aug-12 21:53N 28°10' W 015°24'0 0.0
2017-Aug-12 21:20N 28°10' W 015°24'0 0.0
2017-Aug-12 20:56N 28°10' W 015°24'0 0.0
2017-Aug-12 20:26N 28°10' W 015°24'0 0.0
2017-Aug-12 19:56N 28°10' W 015°24'0 0.0
2017-Aug-12 19:26N 28°10' W 015°24'0 0.0
2017-Aug-12 18:56N 28°10' W 015°24'0 0.0
2017-Aug-12 18:26N 28°10' W 015°24'0 0.0
2017-Aug-12 17:59N 28°10' W 015°24'0 0.0
2017-Aug-12 17:29N 28°10' W 015°24'0 0.0
2017-Aug-12 16:59N 28°10' W 015°24'0 0.0
2017-Aug-12 16:29N 28°10' W 015°24'0 0.0
2017-Aug-12 15:44N 28°10' W 015°24'0 0.0
2017-Aug-12 15:29N 28°10' W 015°24'0 0.0
2017-Aug-12 14:59N 28°10' W 015°24'0 0.0
2017-Aug-12 14:29N 28°10' W 015°24'0 0.0
2017-Aug-12 13:59N 28°10' W 015°24'0 0.0
2017-Aug-12 13:29N 28°10' W 015°24'0 0.0
2017-Aug-12 12:59N 28°10' W 015°24'0 0.0
2017-Aug-12 12:29N 28°10' W 015°24'0 0.0
2017-Aug-12 11:59N 28°10' W 015°24'0 0.0
2017-Aug-12 11:29N 28°10' W 015°24'0 0.0
2017-Aug-12 10:50N 28°10' W 015°24'0 0.0
2017-Aug-12 10:20N 28°10' W 015°24'0 0.0
2017-Aug-12 09:50N 28°10' W 015°24'0 0.0
2017-Aug-12 09:23N 28°10' W 015°24'0 0.0
2017-Aug-12 08:53N 28°10' W 015°24'0 0.0
2017-Aug-12 08:20N 28°10' W 015°24'0 0.0
2017-Aug-12 07:53N 28°10' W 015°24'0 0.0
2017-Aug-12 07:23N 28°10' W 015°24'0 0.0
2017-Aug-12 06:56N 28°10' W 015°24'0 0.0
2017-Aug-12 06:26N 28°10' W 015°24'0 0.0
2017-Aug-12 05:56N 28°10' W 015°24'0 0.0
2017-Aug-12 05:26N 28°10' W 015°24'0 0.0
2017-Aug-12 04:56N 28°10' W 015°24'0 0.0
2017-Aug-12 04:26N 28°10' W 015°24'0 0.0
2017-Aug-12 03:59N 28°10' W 015°24'0 0.0
2017-Aug-12 03:29N 28°10' W 015°24'0 0.0
2017-Aug-12 02:59N 28°10' W 015°24'0 0.0
2017-Aug-12 02:29N 28°10' W 015°24'0 0.0
2017-Aug-12 01:59N 28°10' W 015°24'0 0.0
2017-Aug-12 01:29N 28°10' W 015°24'0 0.0
2017-Aug-12 00:59N 28°10' W 015°24'0 0.0
2017-Aug-12 00:29N 28°10' W 015°24'0 0.0
2017-Aug-11 23:59N 28°10' W 015°24'0 0.0
2017-Aug-11 23:29N 28°10' W 015°24'0 0.0
2017-Aug-11 22:59N 28°10' W 015°24'0 0.0
2017-Aug-11 22:29N 28°10' W 015°24'0 0.0
2017-Aug-11 21:59N 28°10' W 015°24'0 0.0
2017-Aug-11 21:20N 28°10' W 015°24'0 0.0
2017-Aug-11 20:59N 28°10' W 015°24'0 0.0
2017-Aug-11 20:20N 28°10' W 015°24'0 0.0
2017-Aug-11 19:50N 28°10' W 015°24'0 0.0
2017-Aug-11 19:23N 28°10' W 015°24'0 0.0
2017-Aug-11 18:53N 28°10' W 015°24'0 0.0
2017-Aug-11 18:23N 28°10' W 015°24'0 0.0
2017-Aug-11 17:53N 28°10' W 015°24'0 0.0
2017-Aug-11 17:23N 28°10' W 015°24'0 0.0
2017-Aug-11 16:53N 28°10' W 015°24'0 0.0
2017-Aug-11 16:26N 28°10' W 015°24'0 0.0
2017-Aug-11 15:56N 28°10' W 015°24'0 0.0
2017-Aug-11 15:26N 28°10' W 015°24'0 0.0
2017-Aug-11 14:56N 28°10' W 015°24'0 0.0
2017-Aug-11 13:56N 28°10' W 015°24'0 0.0
2017-Aug-11 13:26N 28°10' W 015°24'0 0.0
2017-Aug-11 12:59N 28°10' W 015°24'0 0.0
2017-Aug-11 12:29N 28°10' W 015°24'0 0.0
2017-Aug-11 11:59N 28°10' W 015°24'0 0.0
2017-Aug-11 11:29N 28°10' W 015°24'0 0.0
2017-Aug-11 10:59N 28°10' W 015°24'0 0.0
2017-Aug-11 10:29N 28°10' W 015°24'0 0.0
2017-Aug-11 09:59N 28°10' W 015°24'0 0.0
2017-Aug-11 09:29N 28°10' W 015°24'0 0.0
2017-Aug-11 08:59N 28°10' W 015°24'0 0.0
2017-Aug-11 08:29N 28°10' W 015°24'0 0.0
2017-Aug-11 07:50N 28°10' W 015°24'0 0.0
2017-Aug-11 07:20N 28°10' W 015°24'0 0.0
2017-Aug-11 06:59N 28°10' W 015°24'0 0.0
2017-Aug-11 06:20N 28°10' W 015°24'0 0.0
2017-Aug-11 05:50N 28°10' W 015°24'0 0.0
2017-Aug-11 05:20N 28°10' W 015°24'0 0.0
2017-Aug-11 04:53N 28°10' W 015°24'0 0.0
2017-Aug-11 04:23N 28°10' W 015°24'0 0.0
2017-Aug-11 03:53N 28°10' W 015°24'0 0.0
2017-Aug-11 03:23N 28°10' W 015°24'0 0.0
2017-Aug-11 02:53N 28°10' W 015°24'0 0.0
2017-Aug-11 02:23N 28°10' W 015°24'0 0.0
2017-Aug-11 01:56N 28°10' W 015°24'0 0.0
2017-Aug-11 01:25N 28°10' W 015°24'0 0.0
2017-Aug-11 00:56N 28°10' W 015°24'0 0.0
2017-Aug-11 00:25N 28°10' W 015°24'0 0.0
2017-Aug-10 23:56N 28°10' W 015°24'0 0.0
2017-Aug-10 23:25N 28°10' W 015°24'0 0.0
2017-Aug-10 22:55N 28°10' W 015°24'0 0.0
2017-Aug-10 22:29N 28°10' W 015°24'0 0.0
2017-Aug-10 21:58N 28°10' W 015°24'0 0.0
2017-Aug-10 21:26N 28°10' W 015°24'0 0.0
2017-Aug-10 20:59N 28°10' W 015°24'0 0.0
2017-Aug-10 20:28N 28°10' W 015°24'0 0.0
2017-Aug-10 19:58N 28°10' W 015°24'0 0.0
2017-Aug-10 19:25N 28°10' W 015°24'0 0.0
2017-Aug-10 18:58N 28°10' W 015°24'0 0.0
2017-Aug-10 18:28N 28°10' W 015°24'0 0.0
2017-Aug-10 17:58N 28°10' W 015°24'0 0.0
2017-Aug-10 17:28N 28°10' W 015°24'0 0.0
2017-Aug-10 16:58N 28°10' W 015°24'0 0.0
2017-Aug-10 16:28N 28°10' W 015°24'0 0.0
2017-Aug-10 15:49N 28°10' W 015°24'0 0.0
2017-Aug-10 15:19N 28°10' W 015°24'0 0.0
2017-Aug-10 14:52N 28°10' W 015°24'0 0.0
2017-Aug-10 14:22N 28°10' W 015°24'0 0.0
2017-Aug-10 13:22N 28°10' W 015°24'0 0.0
2017-Aug-10 12:52N 28°10' W 015°24'0 0.0
2017-Aug-10 12:22N 28°10' W 015°24'0 0.0
2017-Aug-10 11:55N 28°10' W 015°24'0 0.0
2017-Aug-10 11:25N 28°10' W 015°24'0 0.0
2017-Aug-10 10:55N 28°10' W 015°24'0 0.0
2017-Aug-10 10:25N 28°10' W 015°24'0 0.0
2017-Aug-10 09:55N 28°10' W 015°24'0 0.0
2017-Aug-10 09:25N 28°10' W 015°24'0 0.0
2017-Aug-10 08:58N 28°10' W 015°24'0 0.0
2017-Aug-10 08:28N 28°10' W 015°24'0 0.0
2017-Aug-10 07:58N 28°10' W 015°24'0 0.0
2017-Aug-10 07:28N 28°10' W 015°24'0 0.0
2017-Aug-10 06:58N 28°10' W 015°24'0 0.0
2017-Aug-10 06:28N 28°10' W 015°24'0 0.0
2017-Aug-10 05:58N 28°10' W 015°24'0 0.0
2017-Aug-10 05:28N 28°10' W 015°24'0 0.0
2017-Aug-10 04:58N 28°10' W 015°24'0 0.0
2017-Aug-10 04:28N 28°10' W 015°24'  
Track history (hours):
 
Tides and Currents Weather Stations Pressure Air Temp Water Temp Dewpoint Dewpoint Depression Visibility Wind Speed Wind Dir Waves Ship Positions

Thor Omega

Last reported at 2017-Aug-20 04:03 UTC. Time now 2017-Sep-24 17:50 UTC.
Position N 27°28' W 016°15'.
Warning: this ship's position is 35 days out of date.

Length 55 m; draft 5 m.

Type: Other ship. MMSI: 231085000.

Date/timePositionNaut miles runAvg speedWind from/ knotsBaromVisibWave heightAir tempDewpointWater temp
2017-Aug-20 04:03N 27°28' W 016°15'2 6.3
2017-Aug-20 03:45N 27°29' W 016°13'4 6.4
2017-Aug-20 03:05N 27°31' W 016°09'1 6.3
2017-Aug-20 02:58N 27°31' W 016°08'3 6.2
2017-Aug-20 02:30N 27°32' W 016°05'4 6.0
2017-Aug-20 01:49N 27°34' W 016°01'3 6.0
2017-Aug-20 01:21N 27°35' W 015°58'2 5.8
2017-Aug-20 00:59N 27°36' W 015°56'3 5.7
2017-Aug-20 00:29N 27°37' W 015°53'3 6.0
2017-Aug-20 00:00N 27°38' W 015°50'3 6.1
2017-Aug-19 23:28N 27°39' W 015°46'26 8.4
2017-Aug-19 20:20N 27°52' W 015°21'3 9.7
2017-Aug-19 20:00N 27°55' W 015°20'5 9.2
2017-Aug-19 19:30N 27°60' W 015°20'4 8.6
2017-Aug-19 19:00N 28°04' W 015°21'4 8.6
2017-Aug-19 18:30N 28°08' W 015°24'2 3.6
2017-Aug-19 17:58N 28°10' W 015°24'0 0.0
2017-Aug-19 17:28N 28°10' W 015°24'0 0.0
2017-Aug-19 16:58N 28°10' W 015°24'0 0.0
2017-Aug-19 16:28N 28°10' W 015°24'0 0.0
2017-Aug-19 15:58N 28°10' W 015°24'0 0.0
2017-Aug-19 15:28N 28°10' W 015°24'0 0.0
2017-Aug-19 14:49N 28°10' W 015°24'0 0.0
2017-Aug-19 13:49N 28°10' W 015°24'0 0.0
2017-Aug-19 13:22N 28°10' W 015°24'0 0.0
2017-Aug-19 12:52N 28°10' W 015°24'0 0.0
2017-Aug-19 12:22N 28°10' W 015°24'0 0.0
2017-Aug-19 11:52N 28°10' W 015°24'0 0.0
2017-Aug-19 11:22N 28°10' W 015°24'0 0.0
2017-Aug-19 10:52N 28°10' W 015°24'0 0.0
2017-Aug-19 10:25N 28°10' W 015°24'0 0.0
2017-Aug-19 09:55N 28°10' W 015°24'0 0.0
2017-Aug-19 09:25N 28°10' W 015°24'0 0.0
2017-Aug-19 08:55N 28°10' W 015°24'0 0.0
2017-Aug-19 08:25N 28°10' W 015°24'0 0.0
2017-Aug-19 07:55N 28°10' W 015°24'0 1.1
2017-Aug-19 07:30N 28°09' W 015°24'0 0.8
2017-Aug-19 06:59N 28°09' W 015°24'0 0.0
2017-Aug-19 06:29N 28°09' W 015°24'0 0.0
2017-Aug-19 05:59N 28°09' W 015°24'0 0.0
2017-Aug-19 05:29N 28°09' W 015°24'0 0.0
2017-Aug-19 04:59N 28°09' W 015°24'0 0.0
2017-Aug-19 04:20N 28°09' W 015°24'0 0.0
2017-Aug-19 03:50N 28°09' W 015°24'0 0.0
2017-Aug-19 03:20N 28°09' W 015°24'0 0.0
2017-Aug-19 02:53N 28°09' W 015°24'0 0.0
2017-Aug-19 02:23N 28°09' W 015°24'0 0.0
2017-Aug-19 01:53N 28°09' W 015°24'0 0.0
2017-Aug-19 01:23N 28°09' W 015°24'0 0.0
2017-Aug-19 00:53N 28°09' W 015°24'0 0.0
2017-Aug-19 00:23N 28°09' W 015°24'0 0.0
2017-Aug-18 23:56N 28°09' W 015°24'0 0.0
2017-Aug-18 23:26N 28°09' W 015°24'0 0.0
2017-Aug-18 22:56N 28°09' W 015°24'0 0.0
2017-Aug-18 22:11N 28°09' W 015°24'0 0.0
2017-Aug-18 21:56N 28°09' W 015°24'0 0.0
2017-Aug-18 21:26N 28°09' W 015°24'0 0.0
2017-Aug-18 20:59N 28°09' W 015°24'0 0.0
2017-Aug-18 20:29N 28°09' W 015°24'0 0.0
2017-Aug-18 19:59N 28°09' W 015°24'0 0.7
2017-Aug-18 19:28N 28°09' W 015°25'0 0.7
2017-Aug-18 18:56N 28°09' W 015°24'0 0.0
2017-Aug-18 18:26N 28°09' W 015°24'0 0.0
2017-Aug-18 17:56N 28°09' W 015°24'0 0.0
2017-Aug-18 17:23N 28°09' W 015°24'0 0.0
2017-Aug-18 16:59N 28°09' W 015°24'0 0.0
2017-Aug-18 16:29N 28°09' W 015°24'0 0.0
2017-Aug-18 15:59N 28°09' W 015°24'0 0.0
2017-Aug-18 15:29N 28°09' W 015°24'0 0.0
2017-Aug-18 14:59N 28°09' W 015°24'0 0.0
2017-Aug-18 14:29N 28°09' W 015°24'0 0.0
2017-Aug-18 13:29N 28°09' W 015°24'0 0.0
2017-Aug-18 12:59N 28°09' W 015°24'0 0.0
2017-Aug-18 12:29N 28°09' W 015°24'0 0.0
2017-Aug-18 11:59N 28°09' W 015°24'0 0.0
2017-Aug-18 11:29N 28°09' W 015°24'0 0.0
2017-Aug-18 10:59N 28°09' W 015°24'0 0.0
2017-Aug-18 10:29N 28°09' W 015°24'0 0.0
2017-Aug-18 09:50N 28°09' W 015°24'0 0.0
2017-Aug-18 09:20N 28°09' W 015°24'0 0.0
2017-Aug-18 08:50N 28°09' W 015°24'0 0.0
2017-Aug-18 08:23N 28°09' W 015°24'0 0.0
2017-Aug-18 07:53N 28°09' W 015°24'0 0.0
2017-Aug-18 07:23N 28°09' W 015°24'0 0.0
2017-Aug-18 06:53N 28°09' W 015°24'0 0.0
2017-Aug-18 06:20N 28°09' W 015°24'0 0.0
2017-Aug-18 05:53N 28°09' W 015°24'0 0.0
2017-Aug-18 05:26N 28°09' W 015°24'0 0.0
2017-Aug-18 04:56N 28°09' W 015°24'0 0.0
2017-Aug-18 04:26N 28°09' W 015°24'0 0.0
2017-Aug-18 03:56N 28°09' W 015°24'0 0.0
2017-Aug-18 03:26N 28°09' W 015°24'0 0.0
2017-Aug-18 02:53N 28°09' W 015°24'0 0.0
2017-Aug-18 02:29N 28°09' W 015°24'0 0.0
2017-Aug-18 01:56N 28°09' W 015°24'0 0.0
2017-Aug-18 01:29N 28°09' W 015°24'0 0.0
2017-Aug-18 00:59N 28°09' W 015°24'0 0.0
2017-Aug-18 00:26N 28°09' W 015°24'0 0.0
2017-Aug-17 23:59N 28°09' W 015°24'0 0.0
2017-Aug-17 23:29N 28°09' W 015°24'0 0.0
2017-Aug-17 22:59N 28°09' W 015°24'0 0.0
2017-Aug-17 22:29N 28°09' W 015°24'0 0.0
2017-Aug-17 21:59N 28°09' W 015°24'0 0.0
2017-Aug-17 21:29N 28°09' W 015°24'0 0.0
2017-Aug-17 20:59N 28°09' W 015°24'0 0.0
2017-Aug-17 20:29N 28°09' W 015°24'0 0.0
2017-Aug-17 19:59N 28°09' W 015°24'0 0.0
2017-Aug-17 19:20N 28°09' W 015°24'0 0.0
2017-Aug-17 18:50N 28°09' W 015°24'0 0.0
2017-Aug-17 18:23N 28°09' W 015°24'0 0.0
2017-Aug-17 17:53N 28°09' W 015°24'0 0.0
2017-Aug-17 17:23N 28°09' W 015°24'0 0.0
2017-Aug-17 16:53N 28°09' W 015°24'0 0.0
2017-Aug-17 16:23N 28°09' W 015°24'0 0.0
2017-Aug-17 15:53N 28°09' W 015°24'0 0.0
2017-Aug-17 15:26N 28°09' W 015°24'0 0.0
2017-Aug-17 14:56N 28°09' W 015°24'0 0.0
2017-Aug-17 14:26N 28°09' W 015°24'0 0.0
2017-Aug-17 13:56N 28°09' W 015°24'0 0.0
2017-Aug-17 13:26N 28°09' W 015°24'0 0.0
2017-Aug-17 12:56N 28°09' W 015°24'0 0.0
2017-Aug-17 12:29N 28°09' W 015°24'0 0.0
2017-Aug-17 11:59N 28°09' W 015°24'0 0.0
2017-Aug-17 11:29N 28°09' W 015°24'0 0.0
2017-Aug-17 10:59N 28°09' W 015°24'0 0.0
2017-Aug-17 10:29N 28°09' W 015°24'0 0.0
2017-Aug-17 09:59N 28°09' W 015°24'0 0.0
2017-Aug-17 09:29N 28°09' W 015°24'0 0.0
2017-Aug-17 08:59N 28°09' W 015°24'0 0.0
2017-Aug-17 08:29N 28°09' W 015°24'0 0.0
2017-Aug-17 07:59N 28°09' W 015°24'0 0.0
2017-Aug-17 07:17N 28°09' W 015°24'0 0.0
2017-Aug-17 06:59N 28°09' W 015°24'0 0.0
2017-Aug-17 06:29N 28°09' W 015°24'0 0.0
2017-Aug-17 05:50N 28°09' W 015°24'0 0.0
2017-Aug-17 05:29N 28°09' W 015°24'0 0.0
2017-Aug-17 04:50N 28°09' W 015°24'0 0.0
2017-Aug-17 04:20N 28°09' W 015°24'0 0.0
2017-Aug-17 03:53N 28°09' W 015°24'0 0.0
2017-Aug-17 03:23N 28°09' W 015°24'0 0.0
2017-Aug-17 02:53N 28°09' W 015°24'0 0.0
2017-Aug-17 02:23N 28°09' W 015°24'0 0.0
2017-Aug-17 01:53N 28°09' W 015°24'0 0.0
2017-Aug-17 01:23N 28°09' W 015°24'0 0.0
2017-Aug-17 00:56N 28°09' W 015°24'0 0.0
2017-Aug-17 00:26N 28°09' W 015°24'0 0.0
2017-Aug-16 23:56N 28°09' W 015°24'0 0.0
2017-Aug-16 23:26N 28°09' W 015°24'0 0.0
2017-Aug-16 22:53N 28°09' W 015°24'0 0.0
2017-Aug-16 22:26N 28°09' W 015°24'0 0.0
2017-Aug-16 21:59N 28°09' W 015°24'0 0.0
2017-Aug-16 21:29N 28°09' W 015°24'0 0.0
2017-Aug-16 20:59N 28°09' W 015°24'0 0.0
2017-Aug-16 20:29N 28°09' W 015°24'0 0.0
2017-Aug-16 19:59N 28°09' W 015°24'0 0.0
2017-Aug-16 19:29N 28°09' W 015°24'0 0.0
2017-Aug-16 18:59N 28°09' W 015°24'0 0.0
2017-Aug-16 18:29N 28°09' W 015°24'0 0.0
2017-Aug-16 17:47N 28°09' W 015°24'0 0.0
2017-Aug-16 17:29N 28°09' W 015°24'0 0.0
2017-Aug-16 16:59N 28°09' W 015°24'0 0.0
2017-Aug-16 16:29N 28°09' W 015°24'0 0.0
2017-Aug-16 15:59N 28°09' W 015°24'0 0.0
2017-Aug-16 15:29N 28°09' W 015°24'0 0.0
2017-Aug-16 14:50N 28°09' W 015°24'0 0.0
2017-Aug-16 14:20N 28°09' W 015°24'0 0.0
2017-Aug-16 13:50N 28°09' W 015°24'0 0.0
2017-Aug-16 13:23N 28°09' W 015°24'0 0.0
2017-Aug-16 12:53N 28°09' W 015°24'0 0.0
2017-Aug-16 12:23N 28°09' W 015°24'0 0.0
2017-Aug-16 11:53N 28°09' W 015°24'0 0.0
2017-Aug-16 11:23N 28°09' W 015°24'0 0.0
2017-Aug-16 10:53N 28°09' W 015°24'0 0.0
2017-Aug-16 10:26N 28°09' W 015°24'0 0.0
2017-Aug-16 09:56N 28°09' W 015°24'0 0.0
2017-Aug-16 09:26N 28°09' W 015°24'0 0.0
2017-Aug-16 08:56N 28°09' W 015°24'0 0.0
2017-Aug-16 08:26N 28°09' W 015°24'0 0.0
2017-Aug-16 07:59N 28°09' W 015°24'0 0.0
2017-Aug-16 07:29N 28°09' W 015°24'0 0.0
2017-Aug-16 06:59N 28°09' W 015°24'0 0.0
2017-Aug-16 06:26N 28°09' W 015°24'0 0.0
2017-Aug-16 05:59N 28°09' W 015°24'0 0.0
2017-Aug-16 05:29N 28°09' W 015°24'0 0.0
2017-Aug-16 04:59N 28°09' W 015°24'0 0.0
2017-Aug-16 04:29N 28°09' W 015°24'0 0.0
2017-Aug-16 03:59N 28°09' W 015°24'0 0.0
2017-Aug-16 03:29N 28°09' W 015°24'0 0.0
2017-Aug-16 02:59N 28°09' W 015°24'0 0.0
2017-Aug-16 02:29N 28°09' W 015°24'0 0.0
2017-Aug-16 01:59N 28°09' W 015°24'0 0.0
2017-Aug-16 01:29N 28°09' W 015°24'0 0.0
2017-Aug-16 00:50N 28°09' W 015°24'0 0.0
2017-Aug-16 00:20N 28°09' W 015°24'0 0.0
2017-Aug-15 23:50N 28°09' W 015°24'0 0.0
2017-Aug-15 23:23N 28°09' W 015°24'0 0.0
2017-Aug-15 22:53N 28°09' W 015°24'0 0.0
2017-Aug-15 22:23N 28°09' W 015°24'0 0.0
2017-Aug-15 21:53N 28°09' W 015°24'0 0.0
2017-Aug-15 21:23N 28°09' W 015°24'0 0.0
2017-Aug-15 20:53N 28°09' W 015°24'0 0.0
2017-Aug-15 20:26N 28°09' W 015°24'0 0.0
2017-Aug-15 19:56N 28°09' W 015°24'0 0.0
2017-Aug-15 19:23N 28°09' W 015°24'0 0.0
2017-Aug-15 18:56N 28°09' W 015°24'0 0.0
2017-Aug-15 18:26N 28°09' W 015°24'0 0.0
2017-Aug-15 17:56N 28°09' W 015°24'0 0.0
2017-Aug-15 17:29N 28°09' W 015°24'0 0.0
2017-Aug-15 16:59N 28°09' W 015°24'0 0.0
2017-Aug-15 16:29N 28°09' W 015°24'0 0.0
2017-Aug-15 15:59N 28°09' W 015°24'0 0.0
2017-Aug-15 15:29N 28°09' W 015°24'0 0.0
2017-Aug-15 14:59N 28°09' W 015°24'0 0.0
2017-Aug-15 14:17N 28°09' W 015°24'0 0.0
2017-Aug-15 13:59N 28°09' W 015°24'0 0.0
2017-Aug-15 13:29N 28°09' W 015°24'0 0.0
2017-Aug-15 12:59N 28°09' W 015°24'0 0.0
2017-Aug-15 12:29N 28°09' W 015°24'0 0.0
2017-Aug-15 11:59N 28°09' W 015°24'0 0.0
2017-Aug-15 11:20N 28°09' W 015°24'0 0.0
2017-Aug-15 10:59N 28°09' W 015°24'0 0.0
2017-Aug-15 10:20N 28°09' W 015°24'0 0.0
2017-Aug-15 09:50N 28°09' W 015°24'0 0.0
2017-Aug-15 09:20N 28°09' W 015°24'0 0.0
2017-Aug-15 08:53N 28°09' W 015°24'0 0.3
2017-Aug-15 08:23N 28°09' W 015°24'0 0.1
2017-Aug-15 07:53N 28°09' W 015°24'0 0.2
2017-Aug-15 07:23N 28°09' W 015°24'0 0.1
2017-Aug-15 06:53N 28°10' W 015°24'0 0.0
2017-Aug-15 06:23N 28°10' W 015°24'0 0.0
2017-Aug-15 05:56N 28°10' W 015°24'0 0.0
2017-Aug-15 05:26N 28°10' W 015°24'0 0.0
2017-Aug-15 04:56N 28°10' W 015°24'0 0.0
2017-Aug-15 04:26N 28°10' W 015°24'0 0.0
2017-Aug-15 03:56N 28°10' W 015°24'0 0.0
2017-Aug-15 03:29N 28°10' W 015°24'0 0.0
2017-Aug-15 02:59N 28°10' W 015°24'0 0.0
2017-Aug-15 02:29N 28°10' W 015°24'0 0.0
2017-Aug-15 01:59N 28°10' W 015°24'0 0.0
2017-Aug-15 01:29N 28°10' W 015°24'0 0.0
2017-Aug-15 00:59N 28°10' W 015°24'0 0.0
2017-Aug-15 00:29N 28°10' W 015°24'0 0.0
2017-Aug-14 23:59N 28°10' W 015°24'0 0.0
2017-Aug-14 23:29N 28°10' W 015°24'0 0.0
2017-Aug-14 22:59N 28°10' W 015°24'0 0.0
2017-Aug-14 22:29N 28°10' W 015°24'0 0.0
2017-Aug-14 21:59N 28°10' W 015°24'0 0.0
2017-Aug-14 21:20N 28°10' W 015°24'0 0.0
2017-Aug-14 20:59N 28°10' W 015°24'0 0.0
2017-Aug-14 20:29N 28°10' W 015°24'0 0.0
2017-Aug-14 19:50N 28°10' W 015°24'0 0.0
2017-Aug-14 19:20N 28°10' W 015°24'0 0.0
2017-Aug-14 18:50N 28°10' W 015°24'0 0.0
2017-Aug-14 18:23N 28°10' W 015°24'0 0.0
2017-Aug-14 17:50N 28°10' W 015°24'0 0.0
2017-Aug-14 17:23N 28°10' W 015°24'0 0.0
2017-Aug-14 16:53N 28°10' W 015°24'0 0.0
2017-Aug-14 16:23N 28°10' W 015°24'0 0.0
2017-Aug-14 15:56N 28°10' W 015°24'0 0.0
2017-Aug-14 15:26N 28°10' W 015°24'0 0.0
2017-Aug-14 14:56N 28°10' W 015°24'0 0.0
2017-Aug-14 14:26N 28°10' W 015°24'0 0.0
2017-Aug-14 13:56N 28°10' W 015°24'0 0.0
2017-Aug-14 13:26N 28°10' W 015°24'0 0.0
2017-Aug-14 12:59N 28°10' W 015°24'0 0.0
2017-Aug-14 12:29N 28°10' W 015°24'0 0.0
2017-Aug-14 11:59N 28°10' W 015°24'0 0.0
2017-Aug-14 11:26N 28°10' W 015°24'0 0.0
2017-Aug-14 10:59N 28°10' W 015°24'0 0.0
2017-Aug-14 10:29N 28°10' W 015°24'0 0.0
2017-Aug-14 09:59N 28°10' W 015°24'0 0.0
2017-Aug-14 09:29N 28°10' W 015°24'0 0.0
2017-Aug-14 08:59N 28°10' W 015°24'0 0.0
2017-Aug-14 08:29N 28°10' W 015°24'0 0.0
2017-Aug-14 07:59N 28°10' W 015°24'0 0.0
2017-Aug-14 07:29N 28°10' W 015°24'0 0.0
2017-Aug-14 06:59N 28°10' W 015°24'0 0.0
2017-Aug-14 06:29N 28°10' W 015°24'0 0.0
2017-Aug-14 05:50N 28°10' W 015°24'0 0.0
2017-Aug-14 05:17N 28°10' W 015°24'0 0.0
2017-Aug-14 04:50N 28°10' W 015°24'0 0.0
2017-Aug-14 04:20N 28°10' W 015°24'0 0.0
2017-Aug-14 03:53N 28°10' W 015°24'0 0.0
2017-Aug-14 03:23N 28°10' W 015°24'0 0.0
2017-Aug-14 02:53N 28°10' W 015°24'0 0.0
2017-Aug-14 02:23N 28°10' W 015°24'0 0.0
2017-Aug-14 01:53N 28°10' W 015°24'0 0.0
2017-Aug-14 01:26N 28°10' W 015°24'0 0.0
2017-Aug-14 00:56N 28°10' W 015°24'0 0.0
2017-Aug-14 00:26N 28°10' W 015°24'0 0.0
2017-Aug-13 23:56N 28°10' W 015°24'0 0.0
2017-Aug-13 23:26N 28°10' W 015°24'0 0.0
2017-Aug-13 22:56N 28°10' W 015°24'0 0.0
2017-Aug-13 22:29N 28°10' W 015°24'0 0.0
2017-Aug-13 21:59N 28°10' W 015°24'0 0.0
2017-Aug-13 21:29N 28°10' W 015°24'0 0.0
2017-Aug-13 20:59N 28°10' W 015°24'0 0.0
2017-Aug-13 20:29N 28°10' W 015°24'0 0.0
2017-Aug-13 19:47N 28°10' W 015°24'0 0.0
2017-Aug-13 19:29N 28°10' W 015°24'0 0.0
2017-Aug-13 18:59N 28°10' W 015°24'0 0.0
2017-Aug-13 18:29N 28°10' W 015°24'0 0.0
2017-Aug-13 17:59N 28°10' W 015°24'0 0.0
2017-Aug-13 17:29N 28°10' W 015°24'0 0.0
2017-Aug-13 16:59N 28°10' W 015°24'0 0.0
2017-Aug-13 16:29N 28°10' W 015°24'0 0.0
2017-Aug-13 15:59N 28°10' W 015°24'0 0.0
2017-Aug-13 15:20N 28°10' W 015°24'0 0.0
2017-Aug-13 14:50N 28°10' W 015°24'0 0.0
2017-Aug-13 14:20N 28°10' W 015°24'0 0.0
2017-Aug-13 13:59N 28°10' W 015°24'0 0.0
2017-Aug-13 13:23N 28°10' W 015°24'0 0.0
2017-Aug-13 12:53N 28°10' W 015°24'0 0.0
2017-Aug-13 12:23N 28°10' W 015°24'0 0.0
2017-Aug-13 11:53N 28°10' W 015°24'0 0.0
2017-Aug-13 11:26N 28°10' W 015°24'0 0.0
2017-Aug-13 10:56N 28°10' W 015°24'0 0.0
2017-Aug-13 10:26N 28°10' W 015°24'0 0.0
2017-Aug-13 09:56N 28°10' W 015°24'0 0.0
2017-Aug-13 09:26N 28°10' W 015°24'0 0.0
2017-Aug-13 08:56N 28°10' W 015°24'0 0.0
2017-Aug-13 08:29N 28°10' W 015°24'0 0.0
2017-Aug-13 07:59N 28°10' W 015°24'0 0.0
2017-Aug-13 07:29N 28°10' W 015°24'0 0.0
2017-Aug-13 06:59N 28°10' W 015°24'0 0.0
2017-Aug-13 06:29N 28°10' W 015°24'0 0.0
2017-Aug-13 05:59N 28°10' W 015°24'0 0.0
2017-Aug-13 05:29N 28°10' W 015°24'0 0.0
2017-Aug-13 04:59N 28°10' W 015°24'0 0.0
2017-Aug-13 04:29N 28°10' W 015°24'0 0.0
2017-Aug-13 03:59N 28°10' W 015°24'0 0.0
2017-Aug-13 03:17N 28°10' W 015°24'0 0.0
2017-Aug-13 02:59N 28°10' W 015°24'0 0.0
2017-Aug-13 02:29N 28°10' W 015°24'0 0.0
2017-Aug-13 01:59N 28°10' W 015°24'0 0.0
2017-Aug-13 01:29N 28°10' W 015°24'0 0.0
2017-Aug-13 00:50N 28°10' W 015°24'0 0.0
2017-Aug-13 00:20N 28°10' W 015°24'0 0.0
2017-Aug-12 23:53N 28°10' W 015°24'0 0.0
2017-Aug-12 23:23N 28°10' W 015°24'0 0.0
2017-Aug-12 22:53N 28°10' W 015°24'0 0.0
2017-Aug-12 22:20N 28°10' W 015°24'0 0.0
2017-Aug-12 21:53N 28°10' W 015°24'0 0.0
2017-Aug-12 21:20N 28°10' W 015°24'0 0.0
2017-Aug-12 20:56N 28°10' W 015°24'0 0.0
2017-Aug-12 20:26N 28°10' W 015°24'0 0.0
2017-Aug-12 19:56N 28°10' W 015°24'0 0.0
2017-Aug-12 19:26N 28°10' W 015°24'0 0.0
2017-Aug-12 18:56N 28°10' W 015°24'0 0.0
2017-Aug-12 18:26N 28°10' W 015°24'0 0.0
2017-Aug-12 17:59N 28°10' W 015°24'0 0.0
2017-Aug-12 17:29N 28°10' W 015°24'0 0.0
2017-Aug-12 16:59N 28°10' W 015°24'0 0.0
2017-Aug-12 16:29N 28°10' W 015°24'0 0.0
2017-Aug-12 15:44N 28°10' W 015°24'0 0.0
2017-Aug-12 15:29N 28°10' W 015°24'0 0.0
2017-Aug-12 14:59N 28°10' W 015°24'0 0.0
2017-Aug-12 14:29N 28°10' W 015°24'0 0.0
2017-Aug-12 13:59N 28°10' W 015°24'0 0.0
2017-Aug-12 13:29N 28°10' W 015°24'0 0.0
2017-Aug-12 12:59N 28°10' W 015°24'0 0.0
2017-Aug-12 12:29N 28°10' W 015°24'0 0.0
2017-Aug-12 11:59N 28°10' W 015°24'0 0.0
2017-Aug-12 11:29N 28°10' W 015°24'0 0.0
2017-Aug-12 10:50N 28°10' W 015°24'0 0.0
2017-Aug-12 10:20N 28°10' W 015°24'0 0.0
2017-Aug-12 09:50N 28°10' W 015°24'0 0.0
2017-Aug-12 09:23N 28°10' W 015°24'0 0.0
2017-Aug-12 08:53N 28°10' W 015°24'0 0.0
2017-Aug-12 08:20N 28°10' W 015°24'0 0.0
2017-Aug-12 07:53N 28°10' W 015°24'0 0.0
2017-Aug-12 07:23N 28°10' W 015°24'0 0.0
2017-Aug-12 06:56N 28°10' W 015°24'0 0.0
2017-Aug-12 06:26N 28°10' W 015°24'0 0.0
2017-Aug-12 05:56N 28°10' W 015°24'0 0.0
2017-Aug-12 05:26N 28°10' W 015°24'0 0.0
2017-Aug-12 04:56N 28°10' W 015°24'0 0.0
2017-Aug-12 04:26N 28°10' W 015°24'0 0.0
2017-Aug-12 03:59N 28°10' W 015°24'0 0.0
2017-Aug-12 03:29N 28°10' W 015°24'0 0.0
2017-Aug-12 02:59N 28°10' W 015°24'0 0.0
2017-Aug-12 02:29N 28°10' W 015°24'0 0.0
2017-Aug-12 01:59N 28°10' W 015°24'0 0.0
2017-Aug-12 01:29N 28°10' W 015°24'0 0.0
2017-Aug-12 00:59N 28°10' W 015°24'0 0.0
2017-Aug-12 00:29N 28°10' W 015°24'0 0.0
2017-Aug-11 23:59N 28°10' W 015°24'0 0.0
2017-Aug-11 23:29N 28°10' W 015°24'0 0.0
2017-Aug-11 22:59N 28°10' W 015°24'0 0.0
2017-Aug-11 22:29N 28°10' W 015°24'0 0.0
2017-Aug-11 21:59N 28°10' W 015°24'0 0.0
2017-Aug-11 21:20N 28°10' W 015°24'0 0.0
2017-Aug-11 20:59N 28°10' W 015°24'0 0.0
2017-Aug-11 20:20N 28°10' W 015°24'0 0.0
2017-Aug-11 19:50N 28°10' W 015°24'0 0.0
2017-Aug-11 19:23N 28°10' W 015°24'0 0.0
2017-Aug-11 18:53N 28°10' W 015°24'0 0.0
2017-Aug-11 18:23N 28°10' W 015°24'0 0.0
2017-Aug-11 17:53N 28°10' W 015°24'0 0.0
2017-Aug-11 17:23N 28°10' W 015°24'0 0.0
2017-Aug-11 16:53N 28°10' W 015°24'0 0.0
2017-Aug-11 16:26N 28°10' W 015°24'0 0.0
2017-Aug-11 15:56N 28°10' W 015°24'0 0.0
2017-Aug-11 15:26N 28°10' W 015°24'0 0.0
2017-Aug-11 14:56N 28°10' W 015°24'0 0.0
2017-Aug-11 13:56N 28°10' W 015°24'0 0.0
2017-Aug-11 13:26N 28°10' W 015°24'0 0.0
2017-Aug-11 12:59N 28°10' W 015°24'0 0.0
2017-Aug-11 12:29N 28°10' W 015°24'0 0.0
2017-Aug-11 11:59N 28°10' W 015°24'0 0.0
2017-Aug-11 11:29N 28°10' W 015°24'0 0.0
2017-Aug-11 10:59N 28°10' W 015°24'0 0.0
2017-Aug-11 10:29N 28°10' W 015°24'0 0.0
2017-Aug-11 09:59N 28°10' W 015°24'0 0.0
2017-Aug-11 09:29N 28°10' W 015°24'0 0.0
2017-Aug-11 08:59N 28°10' W 015°24'0 0.0
2017-Aug-11 08:29N 28°10' W 015°24'0 0.0
2017-Aug-11 07:50N 28°10' W 015°24'0 0.0
2017-Aug-11 07:20N 28°10' W 015°24'0 0.0
2017-Aug-11 06:59N 28°10' W 015°24'0 0.0
2017-Aug-11 06:20N 28°10' W 015°24'0 0.0
2017-Aug-11 05:50N 28°10' W 015°24'0 0.0
2017-Aug-11 05:20N 28°10' W 015°24'0 0.0
2017-Aug-11 04:53N 28°10' W 015°24'0 0.0
2017-Aug-11 04:23N 28°10' W 015°24'0 0.0
2017-Aug-11 03:53N 28°10' W 015°24'0 0.0
2017-Aug-11 03:23N 28°10' W 015°24'0 0.0
2017-Aug-11 02:53N 28°10' W 015°24'0 0.0
2017-Aug-11 02:23N 28°10' W 015°24'0 0.0
2017-Aug-11 01:56N 28°10' W 015°24'0 0.0
2017-Aug-11 01:25N 28°10' W 015°24'0 0.0
2017-Aug-11 00:56N 28°10' W 015°24'0 0.0
2017-Aug-11 00:25N 28°10' W 015°24'0 0.0
2017-Aug-10 23:56N 28°10' W 015°24'0 0.0
2017-Aug-10 23:25N 28°10' W 015°24'0 0.0
2017-Aug-10 22:55N 28°10' W 015°24'0 0.0
2017-Aug-10 22:29N 28°10' W 015°24'0 0.0
2017-Aug-10 21:58N 28°10' W 015°24'0 0.0
2017-Aug-10 21:26N 28°10' W 015°24'0 0.0
2017-Aug-10 20:59N 28°10' W 015°24'0 0.0
2017-Aug-10 20:28N 28°10' W 015°24'0 0.0
2017-Aug-10 19:58N 28°10' W 015°24'0 0.0
2017-Aug-10 19:25N 28°10' W 015°24'0 0.0
2017-Aug-10 18:58N 28°10' W 015°24'0 0.0
2017-Aug-10 18:28N 28°10' W 015°24'0 0.0
2017-Aug-10 17:58N 28°10' W 015°24'0 0.0
2017-Aug-10 17:28N 28°10' W 015°24'0 0.0
2017-Aug-10 16:58N 28°10' W 015°24'0 0.0
2017-Aug-10 16:28N 28°10' W 015°24'0 0.0
2017-Aug-10 15:49N 28°10' W 015°24'0 0.0
2017-Aug-10 15:19N 28°10' W 015°24'0 0.0
2017-Aug-10 14:52N 28°10' W 015°24'0 0.0
2017-Aug-10 14:22N 28°10' W 015°24'0 0.0
2017-Aug-10 13:22N 28°10' W 015°24'0 0.0
2017-Aug-10 12:52N 28°10' W 015°24'0 0.0
2017-Aug-10 12:22N 28°10' W 015°24'0 0.0
2017-Aug-10 11:55N 28°10' W 015°24'0 0.0
2017-Aug-10 11:25N 28°10' W 015°24'0 0.0
2017-Aug-10 10:55N 28°10' W 015°24'0 0.0
2017-Aug-10 10:25N 28°10' W 015°24'0 0.0
2017-Aug-10 09:55N 28°10' W 015°24'0 0.0
2017-Aug-10 09:25N 28°10' W 015°24'0 0.0
2017-Aug-10 08:58N 28°10' W 015°24'0 0.0
2017-Aug-10 08:28N 28°10' W 015°24'0 0.0
2017-Aug-10 07:58N 28°10' W 015°24'0 0.0
2017-Aug-10 07:28N 28°10' W 015°24'0 0.0
2017-Aug-10 06:58N 28°10' W 015°24'0 0.0
2017-Aug-10 06:28N 28°10' W 015°24'0 0.0
2017-Aug-10 05:58N 28°10' W 015°24'0 0.0
2017-Aug-10 05:28N 28°10' W 015°24'0 0.0
2017-Aug-10 04:58N 28°10' W 015°24'0 0.0
2017-Aug-10 04:28N 28°10' W 015°24'  

Dump ship's entire track history